Time;durP1;ratioP1;P1;durP2;ratioP2;P2;SDS_P1;SDS_P2;PMS_P1;PMS_P2;Temp;Humidity;BMP_temperature;BMP_pressure;BME280_temperature;BME280_humidity;BME280_pressure;Samples;Min_cycle;Max_cycle;Signal;HPM_P1;HPM_P2
2022/05/24 00:00:38;;;;;;;7.80;7.00;;;22.90;99.90;;;;;;5058721;28;20211;-73
2022/05/24 00:03:06;;;;;;;7.20;6.45;;;22.90;99.90;;;;;;5058600;28;20281;-73
2022/05/24 00:05:35;;;;;;;7.70;6.90;;;22.90;99.90;;;;;;5057541;28;20206;-73
2022/05/24 00:08:02;;;;;;;10.32;7.35;;;22.90;99.90;;;;;;5059586;28;20190;-73
2022/05/24 00:10:32;;;;;;;8.07;6.90;;;22.80;99.90;;;;;;5057930;28;20606;-73
2022/05/24 00:13:00;;;;;;;10.00;6.93;;;22.80;99.90;;;;;;5056876;28;20191;-73
2022/05/24 00:15:31;;;;;;;8.07;6.82;;;22.80;99.90;;;;;;5061969;28;20194;-73
2022/05/24 00:18:03;;;;;;;11.05;6.65;;;22.80;99.90;;;;;;5059851;28;20218;-74
2022/05/24 00:20:33;;;;;;;11.00;7.30;;;22.80;99.90;;;;;;5057423;28;20222;-73
2022/05/24 00:23:01;;;;;;;9.23;7.80;;;22.80;99.90;;;;;;5059039;28;20183;-74
2022/05/24 00:25:29;;;;;;;9.98;7.38;;;22.80;99.90;;;;;;5056304;28;20241;-73
2022/05/24 00:27:57;;;;;;;8.70;7.40;;;22.80;99.90;;;;;;5056278;28;20640;-74
2022/05/24 00:30:24;;;;;;;9.93;7.20;;;22.80;99.90;;;;;;5058947;28;20244;-73
2022/05/24 00:32:51;;;;;;;13.68;6.80;;;22.80;99.90;;;;;;5056298;28;20268;-73
2022/05/24 00:35:20;;;;;;;7.28;6.50;;;22.80;99.90;;;;;;5058651;28;20284;-73
2022/05/24 00:37:48;;;;;;;10.30;6.00;;;22.80;99.90;;;;;;5059325;28;20239;-73
2022/05/24 00:40:23;;;;;;;9.20;7.40;;;22.80;99.90;;;;;;5057473;28;20768;-74
2022/05/24 00:42:52;;;;;;;7.85;6.78;;;22.80;99.90;;;;;;5056393;28;20567;-73
2022/05/24 00:45:24;;;;;;;7.43;6.55;;;22.80;99.90;;;;;;5060199;28;20317;-73
2022/05/24 00:47:56;;;;;;;9.15;7.07;;;22.70;99.90;;;;;;5058637;28;20225;-73
2022/05/24 00:50:29;;;;;;;8.45;7.65;;;22.70;99.90;;;;;;5058662;28;20686;-73
2022/05/24 00:53:00;;;;;;;8.63;7.03;;;22.70;99.90;;;;;;5060270;28;20194;-73
2022/05/24 00:55:29;;;;;;;8.10;6.75;;;22.70;99.90;;;;;;5060497;28;20218;-73
2022/05/24 00:58:03;;;;;;;8.43;6.53;;;22.70;99.90;;;;;;5060230;28;20189;-73
2022/05/24 01:00:31;;;;;;;11.23;7.45;;;22.70;99.90;;;;;;5059799;28;20217;-73
2022/05/24 01:02:59;;;;;;;9.32;6.65;;;22.70;99.90;;;;;;5056776;28;20198;-73
2022/05/24 01:05:30;;;;;;;7.88;7.00;;;22.60;99.90;;;;;;5061063;28;20214;-74
2022/05/24 01:07:57;;;;;;;8.23;7.13;;;22.60;99.90;;;;;;5060685;28;20203;-74
2022/05/24 01:10:29;;;;;;;7.60;6.43;;;22.60;99.90;;;;;;5058446;28;20283;-73
2022/05/24 01:13:02;;;;;;;7.50;6.50;;;22.60;99.90;;;;;;5058155;28;20199;-73
2022/05/24 01:15:29;;;;;;;12.10;7.38;;;22.60;99.90;;;;;;5057230;28;20218;-73
2022/05/24 01:17:58;;;;;;;10.50;7.13;;;22.50;99.90;;;;;;5056769;28;20191;-73
2022/05/24 01:20:26;;;;;;;12.38;8.35;;;22.50;99.90;;;;;;5058445;28;20541;-73
2022/05/24 01:23:27;;;;;;;8.75;6.35;;;22.50;99.90;;;;;;5059721;28;20217;-74
2022/05/24 01:26:02;;;;;;;9.30;7.47;;;22.40;99.90;;;;;;5058650;28;20475;-73
2022/05/24 01:28:35;;;;;;;11.57;7.38;;;22.40;99.90;;;;;;5060251;28;20193;-72
2022/05/24 01:31:03;;;;;;;10.13;7.22;;;22.40;99.90;;;;;;5055769;28;20223;-73
2022/05/24 01:36:16;;;;;;;7.15;6.47;;;22.40;99.90;;;;;;5076930;28;20237;-75
2022/05/24 01:38:48;;;;;;;7.03;6.20;;;22.40;99.90;;;;;;5077232;28;20193;-75
2022/05/24 01:41:20;;;;;;;10.82;7.43;;;22.30;99.90;;;;;;5078950;28;20234;-74
2022/05/24 01:43:51;;;;;;;7.82;7.03;;;22.30;99.90;;;;;;5072683;28;20529;-75
2022/05/24 01:46:22;;;;;;;8.38;6.70;;;22.30;99.90;;;;;;5070828;28;20221;-75
2022/05/24 01:48:53;;;;;;;8.60;6.32;;;22.30;99.90;;;;;;5074078;28;20267;-75
2022/05/24 01:51:25;;;;;;;10.63;6.85;;;22.30;99.90;;;;;;5077894;28;20229;-76
2022/05/24 01:53:57;;;;;;;7.82;7.03;;;22.30;99.90;;;;;;5077560;28;20230;-74
2022/05/24 01:56:29;;;;;;;7.88;6.50;;;22.30;99.90;;;;;;5073522;28;20245;-74
2022/05/24 01:59:01;;;;;;;6.30;5.72;;;22.30;99.90;;;;;;5072693;28;20650;-76
2022/05/24 02:01:37;;;;;;;8.52;5.50;;;22.30;99.90;;;;;;5071542;28;20222;-77
2022/05/24 02:04:06;;;;;;;7.40;6.22;;;22.30;99.90;;;;;;5073841;28;20267;-76
2022/05/24 02:06:34;;;;;;;7.25;6.53;;;22.30;99.90;;;;;;5078165;28;20225;-76
2022/05/24 02:09:03;;;;;;;7.50;5.60;;;22.20;99.90;;;;;;5076778;28;20194;-76
2022/05/24 02:11:32;;;;;;;11.73;6.63;;;22.20;99.90;;;;;;5078559;28;20213;-75
2022/05/24 02:14:07;;;;;;;8.05;6.93;;;22.20;99.90;;;;;;5073511;28;20621;-76
2022/05/24 02:16:38;;;;;;;6.88;6.18;;;22.20;99.90;;;;;;5073900;28;20379;-74
2022/05/24 02:19:06;;;;;;;10.00;6.63;;;22.20;99.90;;;;;;5078249;28;20209;-77
2022/05/24 02:21:33;;;;;;;7.03;5.22;;;22.10;99.90;;;;;;5081893;28;20550;-74
2022/05/24 02:24:00;;;;;;;7.30;5.05;;;22.10;99.90;;;;;;5079223;28;20217;-76
2022/05/24 02:26:28;;;;;;;8.15;6.47;;;22.00;99.90;;;;;;5082971;28;20278;-74
2022/05/24 02:28:56;;;;;;;6.10;5.55;;;21.90;99.90;;;;;;5074828;28;20248;-76
2022/05/24 02:31:26;;;;;;;5.13;4.65;;;21.90;99.90;;;;;;5079364;28;20218;-75
2022/05/24 02:33:53;;;;;;;5.43;5.00;;;22.00;99.90;;;;;;5079534;28;20222;-74
2022/05/24 02:36:20;;;;;;;6.22;5.53;;;21.90;99.90;;;;;;5082101;28;20749;-75
2022/05/24 02:38:48;;;;;;;6.55;5.88;;;21.80;99.90;;;;;;5080691;28;20403;-74
2022/05/24 02:41:29;;;;;;;5.80;5.28;;;21.80;99.90;;;;;;5081762;28;20200;-74
2022/05/24 02:43:57;;;;;;;5.55;4.65;;;21.80;99.90;;;;;;5074522;28;20211;-75
2022/05/24 02:46:26;;;;;;;7.72;6.15;;;21.70;99.90;;;;;;5076073;28;20264;-74
2022/05/24 02:48:53;;;;;;;6.13;5.35;;;21.80;99.90;;;;;;5074779;28;20201;-75
2022/05/24 02:51:20;;;;;;;4.85;4.45;;;21.70;99.90;;;;;;5078418;28;20218;-74
2022/05/24 02:53:47;;;;;;;7.22;6.38;;;21.60;99.90;;;;;;5081825;28;20210;-74
2022/05/24 02:56:15;;;;;;;5.95;5.32;;;21.40;99.90;;;;;;5080011;28;20193;-76
2022/05/24 02:58:43;;;;;;;7.88;4.93;;;21.30;99.90;;;;;;5081053;28;20199;-76
2022/05/24 03:01:18;;;;;;;9.38;4.72;;;21.30;99.90;;;;;;5081326;28;20362;-75
2022/05/24 03:03:47;;;;;;;5.13;4.63;;;21.30;99.90;;;;;;5081242;28;20294;-76
2022/05/24 03:06:14;;;;;;;4.82;4.43;;;21.30;99.90;;;;;;5075792;28;20614;-76
2022/05/24 03:11:26;;;;;;;4.72;4.32;;;21.20;99.90;;;;;;5075222;28;20229;-76
2022/05/24 03:16:38;;;;;;;5.10;4.63;;;20.90;99.90;;;;;;5073002;28;20834;-75
2022/05/24 03:19:06;;;;;;;4.25;3.95;;;20.80;99.90;;;;;;5076458;28;20186;-76
2022/05/24 03:21:33;;;;;;;4.40;4.10;;;20.70;99.90;;;;;;5077223;28;20222;-76
2022/05/24 03:24:00;;;;;;;4.25;3.92;;;20.70;99.90;;;;;;5081881;28;20206;-77
2022/05/24 03:26:28;;;;;;;5.60;4.25;;;20.70;99.90;;;;;;5078321;28;20226;-76
2022/05/24 03:28:55;;;;;;;6.30;4.78;;;20.80;99.90;;;;;;5078467;28;20214;-76
2022/05/24 03:31:22;;;;;;;8.05;4.57;;;20.90;99.90;;;;;;5078476;28;20193;-76
2022/05/24 03:33:49;;;;;;;5.10;4.57;;;21.00;99.90;;;;;;5080391;28;21487;-77
2022/05/24 03:36:19;;;;;;;4.97;4.57;;;20.90;99.90;;;;;;5074838;28;20646;-76
2022/05/24 03:38:47;;;;;;;7.85;5.50;;;20.80;99.90;;;;;;5079445;28;20248;-76
2022/05/24 03:41:14;;;;;;;6.38;5.78;;;20.70;99.90;;;;;;5078164;28;20230;-76
2022/05/24 03:43:41;;;;;;;5.43;4.93;;;20.60;99.90;;;;;;5079246;28;20210;-74
2022/05/24 03:46:10;;;;;;;5.38;4.88;;;20.60;99.90;;;;;;5075977;28;20264;-76
2022/05/24 03:48:37;;;;;;;4.60;4.20;;;20.70;99.90;;;;;;5071243;28;20352;-74
2022/05/24 03:51:05;;;;;;;5.05;4.65;;;20.70;99.90;;;;;;5076325;28;20197;-75
2022/05/24 03:53:33;;;;;;;4.50;4.13;;;20.70;99.90;;;;;;5080709;28;20221;-75
2022/05/24 03:56:01;;;;;;;5.22;4.70;;;20.70;99.90;;;;;;5079950;28;20269;-77
2022/05/24 03:58:28;;;;;;;5.32;4.82;;;20.70;99.90;;;;;;5077493;28;20218;-74
2022/05/24 04:00:56;;;;;;;4.68;4.30;;;20.70;99.90;;;;;;5074064;28;20664;-75
2022/05/24 04:03:23;;;;;;;6.32;5.72;;;20.70;99.90;;;;;;5077466;28;20280;-74
2022/05/24 04:05:50;;;;;;;4.93;4.47;;;20.80;99.90;;;;;;5081610;28;20200;-75
2022/05/24 04:08:19;;;;;;;5.18;4.78;;;20.80;99.90;;;;;;5078331;28;20559;-74
2022/05/24 04:10:48;;;;;;;5.32;4.63;;;20.80;99.90;;;;;;5075078;28;20186;-76
2022/05/24 04:13:15;;;;;;;4.72;4.40;;;20.80;99.90;;;;;;5074664;28;20218;-75
2022/05/24 04:15:42;;;;;;;5.78;4.75;;;20.80;99.90;;;;;;5073998;28;20190;-76
2022/05/24 04:18:09;;;;;;;5.47;5.00;;;20.80;99.90;;;;;;5074232;28;20206;-74
2022/05/24 04:20:36;;;;;;;5.47;4.93;;;20.70;99.90;;;;;;5079358;28;20190;-75
2022/05/24 04:23:03;;;;;;;5.30;4.80;;;20.70;99.90;;;;;;5080552;28;20727;-74
2022/05/24 04:25:35;;;;;;;5.93;5.45;;;20.60;99.90;;;;;;5080392;28;20213;-75
2022/05/24 04:28:04;;;;;;;5.70;5.20;;;20.50;99.90;;;;;;5079058;28;20313;-75
2022/05/24 04:30:32;;;;;;;5.72;5.22;;;20.50;99.90;;;;;;5091505;28;20625;-75
2022/05/24 04:32:59;;;;;;;5.22;4.78;;;20.40;99.90;;;;;;5080714;28;20217;-74
2022/05/24 04:35:26;;;;;;;5.25;4.85;;;20.30;99.90;;;;;;5074263;28;20194;-75
2022/05/24 04:37:53;;;;;;;5.40;5.00;;;20.40;99.90;;;;;;5079803;28;20221;-73
2022/05/24 04:42:18;;;;;;;5.70;5.10;;;20.40;99.90;;;;;;5077916;28;20259;-77
2022/05/24 04:43:08;;;;;;;5.97;5.47;;;20.40;99.90;;;;;;5077557;28;20286;-74
2022/05/24 04:45:35;;;;;;;5.95;5.45;;;20.40;99.90;;;;;;5075010;28;20277;-75
2022/05/24 04:48:02;;;;;;;9.02;7.57;;;20.50;99.90;;;;;;5074090;28;20331;-75
2022/05/24 04:50:29;;;;;;;6.43;5.90;;;20.50;99.90;;;;;;5064884;28;20199;-75
2022/05/24 04:52:56;;;;;;;6.70;6.00;;;20.40;99.90;;;;;;5079862;28;20217;-73
2022/05/24 04:55:26;;;;;;;6.60;6.00;;;20.40;99.90;;;;;;5076940;28;20205;-75
2022/05/24 04:57:53;;;;;;;5.75;5.28;;;20.30;99.90;;;;;;5077584;28;20213;-77
2022/05/24 05:00:23;;;;;;;6.07;5.47;;;20.30;99.90;;;;;;5075355;28;20572;-75
2022/05/24 05:02:50;;;;;;;5.35;4.90;;;20.40;99.90;;;;;;5070828;28;20313;-75
2022/05/24 05:05:18;;;;;;;7.03;6.32;;;20.40;99.90;;;;;;5072157;28;20217;-76
2022/05/24 05:07:45;;;;;;;5.60;5.10;;;20.40;99.90;;;;;;5076734;28;20222;-76
2022/05/24 05:10:14;;;;;;;6.20;5.70;;;20.40;99.90;;;;;;5079201;28;20242;-77
2022/05/24 05:12:41;;;;;;;7.53;6.82;;;20.40;99.90;;;;;;5077065;28;20311;-77
2022/05/24 05:15:09;;;;;;;7.35;6.65;;;20.40;99.90;;;;;;5077651;28;20291;-73
2022/05/24 05:17:38;;;;;;;6.93;6.32;;;20.40;99.90;;;;;;5072579;28;20287;-74
2022/05/24 05:20:06;;;;;;;7.50;6.78;;;20.30;99.90;;;;;;5080839;28;20194;-74
2022/05/24 05:22:33;;;;;;;7.93;7.15;;;20.30;99.90;;;;;;5085747;28;20713;-76
2022/05/24 05:25:00;;;;;;;7.80;6.55;;;20.20;99.90;;;;;;5077078;28;20608;-77
2022/05/24 05:27:27;;;;;;;6.90;6.20;;;20.30;99.90;;;;;;5085075;28;20247;-77
2022/05/24 05:32:40;;;;;;;6.80;5.80;;;20.40;99.90;;;;;;5077258;28;20815;-76
2022/05/24 05:35:08;;;;;;;7.35;6.53;;;20.50;99.90;;;;;;5081502;28;21635;-74
2022/05/24 05:37:35;;;;;;;7.78;7.07;;;20.60;99.90;;;;;;5076907;28;20237;-73
2022/05/24 05:40:04;;;;;;;8.77;7.38;;;20.60;99.90;;;;;;5076392;28;20190;-77
2022/05/24 05:42:31;;;;;;;8.68;7.53;;;20.50;99.90;;;;;;5074110;28;20236;-74
2022/05/24 05:45:00;;;;;;;6.70;6.20;;;20.40;99.90;;;;;;5071097;28;20221;-76
2022/05/24 05:47:27;;;;;;;7.50;6.80;;;20.40;99.90;;;;;;5068125;28;20229;-73
2022/05/24 05:49:55;;;;;;;8.48;7.63;;;20.40;99.90;;;;;;5079517;28;20652;-76
2022/05/24 05:52:22;;;;;;;7.43;6.72;;;20.40;99.90;;;;;;5084362;28;20270;-76
2022/05/24 05:54:49;;;;;;;7.05;6.40;;;20.50;99.90;;;;;;5080733;28;20637;-76
2022/05/24 05:57:16;;;;;;;7.57;6.88;;;20.60;99.90;;;;;;5080540;28;20282;-76
2022/05/24 05:59:43;;;;;;;6.70;6.10;;;20.60;99.90;;;;;;5082621;28;20198;-75
2022/05/24 06:02:10;;;;;;;7.88;7.18;;;20.70;99.90;;;;;;5082500;28;20282;-74
2022/05/24 06:04:38;;;;;;;7.30;6.30;;;20.80;99.90;;;;;;5082002;28;20764;-74
2022/05/24 06:07:07;;;;;;;8.07;6.68;;;21.00;99.90;;;;;;5079727;28;20225;-74
2022/05/24 06:09:35;;;;;;;6.18;5.57;;;21.00;99.90;;;;;;5083531;28;20588;-74
2022/05/24 06:12:02;;;;;;;8.02;7.03;;;21.00;99.90;;;;;;5082105;28;20728;-75
2022/05/24 06:14:30;;;;;;;7.50;6.38;;;21.10;99.90;;;;;;5093088;28;20217;-76
2022/05/24 06:16:57;;;;;;;6.07;5.53;;;21.10;99.90;;;;;;5075661;28;20230;-72
2022/05/24 06:19:24;;;;;;;6.72;5.85;;;21.20;99.90;;;;;;5081401;28;20189;-74
2022/05/24 06:21:51;;;;;;;7.20;6.57;;;21.30;99.90;;;;;;5080994;28;20689;-74
2022/05/24 06:24:19;;;;;;;8.07;7.28;;;21.50;99.90;;;;;;5083733;28;20673;-74
2022/05/24 06:26:47;;;;;;;8.05;7.32;;;21.80;99.90;;;;;;5080783;28;20214;-75
2022/05/24 06:29:14;;;;;;;8.48;7.07;;;22.00;99.90;;;;;;5082035;28;20246;-75
2022/05/24 06:31:44;;;;;;;8.85;7.00;;;22.10;99.90;;;;;;5081190;28;20385;-77
2022/05/24 06:34:12;;;;;;;7.85;7.05;;;22.20;99.90;;;;;;5081341;28;20233;-75
2022/05/24 06:36:39;;;;;;;8.60;6.90;;;22.60;99.90;;;;;;5081707;28;20559;-77
2022/05/24 06:39:07;;;;;;;11.60;7.82;;;22.80;99.90;;;;;;5079798;28;20636;-75
2022/05/24 06:41:35;;;;;;;7.60;6.90;;;22.90;99.90;;;;;;5082695;28;20193;-75
2022/05/24 06:44:02;;;;;;;10.73;8.70;;;23.00;99.90;;;;;;5078300;28;20233;-76
2022/05/24 06:46:30;;;;;;;9.90;8.00;;;23.00;99.90;;;;;;5076237;28;20348;-76
2022/05/24 06:48:58;;;;;;;9.23;8.35;;;22.90;99.90;;;;;;5076629;28;20215;-76
2022/05/24 06:51:25;;;;;;;9.63;8.60;;;22.90;99.90;;;;;;5075284;28;20193;-77
2022/05/24 06:53:52;;;;;;;9.15;8.25;;;22.80;99.90;;;;;;5081218;28;20690;-75
2022/05/24 06:56:19;;;;;;;9.07;8.18;;;22.70;99.90;;;;;;5079497;28;20202;-76
2022/05/24 06:58:48;;;;;;;10.73;7.80;;;22.70;99.90;;;;;;5081168;28;20210;-76
2022/05/24 07:04:00;;;;;;;10.15;8.38;;;23.00;99.90;;;;;;5077679;28;20587;-75
2022/05/24 07:06:28;;;;;;;11.55;8.65;;;23.00;99.90;;;;;;5092197;28;20505;-76
2022/05/24 07:08:55;;;;;;;9.68;8.68;;;23.00;99.90;;;;;;5074967;28;20635;-74
2022/05/24 07:11:23;;;;;;;9.25;8.10;;;22.90;99.90;;;;;;5082377;28;20196;-76
2022/05/24 07:13:51;;;;;;;7.35;6.65;;;22.90;99.90;;;;;;5077485;28;20214;-76
2022/05/24 07:16:18;;;;;;;9.77;8.77;;;23.10;99.90;;;;;;5076251;28;20232;-76
2022/05/24 07:18:46;;;;;;;7.90;7.20;;;23.40;99.90;;;;;;5075205;28;20650;-76
2022/05/24 07:21:13;;;;;;;8.02;7.30;;;23.60;99.90;;;;;;5080836;28;20294;-76
2022/05/24 07:23:40;;;;;;;9.32;7.70;;;23.70;99.90;;;;;;5079809;28;20217;-75
2022/05/24 07:26:11;;;;;;;10.35;8.20;;;23.60;99.90;;;;;;5078661;28;20248;-75
2022/05/24 07:28:38;;;;;;;7.25;6.65;;;23.50;99.90;;;;;;5079346;28;20222;-75
2022/05/24 07:31:06;;;;;;;8.63;7.68;;;23.50;99.90;;;;;;5081337;28;20194;-77
2022/05/24 07:36:21;;;;;;;7.90;7.20;;;23.70;99.90;;;;;;5065321;28;20213;-75
2022/05/24 07:38:48;;;;;;;10.68;8.00;;;23.70;99.90;;;;;;5065816;28;20210;-75
2022/05/24 07:46:45;;;;;;;10.10;7.53;;;23.80;99.90;;;;;;5067810;28;20366;-75
2022/05/24 07:49:12;;;;;;;9.45;7.05;;;23.60;99.90;;;;;;5069159;28;20226;-75
2022/05/24 07:51:39;;;;;;;8.43;7.65;;;23.70;99.90;;;;;;5069430;28;20619;-74
2022/05/24 07:54:06;;;;;;;7.65;6.85;;;23.90;99.90;;;;;;5069341;28;20221;-74
2022/05/24 07:56:33;;;;;;;8.52;6.93;;;24.10;99.90;;;;;;5080656;28;20190;-76
2022/05/24 07:59:00;;;;;;;7.15;6.45;;;24.10;99.90;;;;;;5073389;28;20214;-74
2022/05/24 08:01:27;;;;;;;7.38;6.47;;;24.20;99.90;;;;;;5068623;28;20194;-75
2022/05/24 08:03:56;;;;;;;7.60;6.80;;;24.20;99.90;;;;;;5064398;28;20780;-74
2022/05/24 08:06:23;;;;;;;7.82;6.75;;;24.20;99.90;;;;;;5069806;28;20194;-74
2022/05/24 08:08:50;;;;;;;7.50;6.70;;;24.40;99.90;;;;;;5068425;28;20214;-77
2022/05/24 08:11:17;;;;;;;6.65;6.05;;;24.30;99.90;;;;;;5068930;28;20739;-75
2022/05/24 08:13:44;;;;;;;12.00;7.03;;;24.60;99.90;;;;;;5066427;28;20229;-75
2022/05/24 08:16:11;;;;;;;7.82;6.30;;;24.90;99.90;;;;;;5068640;28;20256;-75
2022/05/24 08:18:38;;;;;;;7.35;5.63;;;25.00;99.90;;;;;;5068286;28;20704;-74
2022/05/24 08:21:06;;;;;;;6.03;4.82;;;25.30;99.90;;;;;;5066533;28;20461;-75
2022/05/24 08:23:34;;;;;;;5.72;4.25;;;25.70;99.90;;;;;;5068291;28;20229;-76
2022/05/24 08:26:01;;;;;;;6.93;6.22;;;26.00;99.90;;;;;;5068345;28;20723;-75
2022/05/24 08:28:28;;;;;;;5.90;5.07;;;26.20;99.90;;;;;;5068351;28;20569;-75
2022/05/24 08:30:55;;;;;;;5.95;4.75;;;26.10;99.90;;;;;;5068915;28;20623;-75
2022/05/24 08:33:24;;;;;;;4.70;4.30;;;26.20;99.90;;;;;;5068873;28;20213;-74
2022/05/24 08:35:52;;;;;;;5.50;4.43;;;26.50;99.90;;;;;;5068238;28;20671;-75
2022/05/24 08:38:21;;;;;;;4.97;4.45;;;26.60;99.90;;;;;;5068350;28;20638;-75
2022/05/24 08:40:50;;;;;;;8.43;4.90;;;26.60;99.90;;;;;;5069134;28;20236;-75
2022/05/24 08:43:42;;;;;;;8.98;4.78;;;26.70;99.90;;;;;;5067949;28;20649;-76
2022/05/24 08:49:03;;;;;;;6.68;4.63;;;26.40;99.90;;;;;;5075955;28;20275;-75
2022/05/24 08:51:33;;;;;;;5.63;3.95;;;26.50;99.90;;;;;;5065165;28;20206;-75
2022/05/24 08:54:09;;;;;;;8.50;5.35;;;26.70;99.90;;;;;;5067279;28;20703;-75
2022/05/24 08:56:51;;;;;;;5.60;3.53;;;27.10;99.90;;;;;;5068982;28;20186;-75
2022/05/24 08:59:22;;;;;;;5.90;3.83;;;27.10;99.90;;;;;;5067968;28;20238;-75
2022/05/24 09:01:50;;;;;;;6.72;4.22;;;27.10;99.90;;;;;;5068357;28;20598;-75
2022/05/24 09:04:18;;;;;;;5.05;3.78;;;27.20;99.90;;;;;;5067679;28;20628;-76
2022/05/24 09:06:57;;;;;;;4.40;4.00;;;27.40;99.90;;;;;;5068688;28;20214;-75
2022/05/24 09:09:50;;;;;;;3.70;3.30;;;27.50;99.90;;;;;;5059304;28;20287;-76
2022/05/24 09:12:33;;;;;;;5.55;3.83;;;27.60;99.90;;;;;;5067322;28;20205;-75
2022/05/24 09:15:10;;;;;;;7.13;3.80;;;27.70;99.90;;;;;;5064344;28;20217;-75
2022/05/24 09:17:47;;;;;;;5.47;3.65;;;27.50;99.90;;;;;;5066171;28;20269;-76
2022/05/24 09:20:28;;;;;;;5.85;3.70;;;27.40;99.90;;;;;;5071444;28;20190;-75
2022/05/24 09:22:57;;;;;;;6.40;3.60;;;27.30;99.90;;;;;;5068004;28;20271;-75
2022/05/24 09:25:26;;;;;;;5.68;3.78;;;27.30;99.90;;;;;;5067955;28;20275;-75
2022/05/24 09:27:55;;;;;;;5.18;3.13;;;27.40;99.90;;;;;;5067753;28;20218;-75
2022/05/24 09:30:25;;;;;;;3.20;2.88;;;27.50;99.90;;;;;;5068209;28;20615;-75
2022/05/24 09:32:53;;;;;;;8.15;3.08;;;27.90;99.90;;;;;;5067355;28;20641;-75
2022/05/24 09:35:25;;;;;;;4.82;2.90;;;28.20;99.90;;;;;;5067921;28;20237;-75
2022/05/24 09:38:13;;;;;;;5.30;3.17;;;28.20;99.90;;;;;;5065484;28;20229;-74
2022/05/24 09:40:51;;;;;;;3.05;2.42;;;28.10;99.90;;;;;;5080746;28;20228;-76
2022/05/24 09:43:26;;;;;;;2.75;2.47;;;27.90;99.90;;;;;;5070569;28;20728;-76
2022/05/24 09:45:57;;;;;;;4.65;2.25;;;27.80;99.90;;;;;;5067757;28;20217;-77
2022/05/24 09:48:27;;;;;;;11.75;2.63;;;27.80;99.90;;;;;;5067229;28;20636;-76
2022/05/24 09:50:57;;;;;;;5.65;2.55;;;27.80;99.90;;;;;;5064217;28;20222;-76
2022/05/24 09:53:26;;;;;;;5.93;2.53;;;27.60;99.90;;;;;;5064054;28;20225;-77
2022/05/24 09:55:59;;;;;;;4.25;2.60;;;27.80;99.90;;;;;;5067945;28;20259;-77
2022/05/24 09:58:32;;;;;;;4.65;2.50;;;27.90;99.90;;;;;;5064553;28;20540;-77
2022/05/24 10:01:02;;;;;;;6.60;2.42;;;27.90;99.90;;;;;;5063791;28;20183;-76
2022/05/24 10:03:33;;;;;;;4.70;2.53;;;28.10;99.90;;;;;;5067173;28;20297;-78
2022/05/24 10:06:10;;;;;;;8.40;2.90;;;28.00;99.90;;;;;;5067670;28;20216;-78
2022/05/24 10:08:40;;;;;;;6.40;2.72;;;27.70;99.90;;;;;;5066359;28;20217;-78
2022/05/24 10:11:19;;;;;;;10.20;2.80;;;27.50;99.90;;;;;;5066494;28;20252;-78
2022/05/24 10:13:57;;;;;;;3.67;2.70;;;27.40;99.90;;;;;;5067130;28;20230;-76
2022/05/24 10:16:34;;;;;;;4.93;2.72;;;27.40;99.90;;;;;;5065615;28;20196;-77
2022/05/24 10:19:34;;;;;;;5.80;2.75;;;27.50;99.90;;;;;;5064113;28;20304;-79
2022/05/24 10:22:07;;;;;;;4.07;2.55;;;27.60;99.90;;;;;;5048120;28;20214;-75
2022/05/24 10:24:45;;;;;;;4.80;2.95;;;27.50;99.90;;;;;;5066943;28;20221;-76
2022/05/24 10:27:24;;;;;;;5.72;3.13;;;27.40;99.90;;;;;;5067676;28;20190;-78
2022/05/24 10:29:56;;;;;;;4.53;2.80;;;27.50;99.90;;;;;;5067626;28;20221;-78
2022/05/24 10:38:28;;;;;;;5.88;2.70;;;27.60;99.90;;;;;;5068731;28;20328;-78
2022/05/24 10:41:06;;;;;;;4.63;2.45;;;27.90;99.90;;;;;;5067225;28;20206;-77
2022/05/24 10:43:54;;;;;;;5.78;3.13;;;28.00;99.90;;;;;;5067091;28;20696;-77
2022/05/24 10:46:28;;;;;;;3.67;2.95;;;28.20;99.90;;;;;;5070484;28;20206;-78
2022/05/24 10:49:05;;;;;;;7.28;3.20;;;28.20;99.90;;;;;;5066057;28;20251;-77
2022/05/24 10:51:37;;;;;;;6.68;3.40;;;27.80;99.90;;;;;;5067432;28;20197;-77
2022/05/24 10:54:11;;;;;;;10.00;3.22;;;27.70;99.90;;;;;;5069706;28;20761;-76
2022/05/24 10:56:44;;;;;;;6.50;3.25;;;27.70;99.90;;;;;;5070148;28;20285;-78
2022/05/24 10:59:24;;;;;;;9.60;3.45;;;27.90;99.90;;;;;;5069389;28;20237;-78
2022/05/24 11:01:57;;;;;;;5.68;3.20;;;27.70;99.90;;;;;;5070271;28;20194;-79
2022/05/24 11:04:27;;;;;;;6.00;3.10;;;27.80;99.90;;;;;;5065857;28;20305;-76
2022/05/24 11:07:00;;;;;;;3.88;2.80;;;28.20;99.90;;;;;;5070141;28;20716;-77
2022/05/24 11:09:32;;;;;;;5.97;3.10;;;28.20;99.90;;;;;;5067705;28;20241;-76
2022/05/24 11:12:05;;;;;;;7.78;3.38;;;28.40;99.90;;;;;;5069813;28;20194;-79
2022/05/24 11:14:39;;;;;;;4.82;2.83;;;28.40;99.90;;;;;;5069043;28;20727;-74
2022/05/24 11:17:10;;;;;;;10.13;3.70;;;28.60;99.90;;;;;;5070138;28;20193;-78
2022/05/24 11:19:40;;;;;;;3.97;3.20;;;28.80;99.90;;;;;;5061066;28;20699;-77
2022/05/24 11:22:18;;;;;;;5.30;3.47;;;28.90;99.90;;;;;;5069444;28;20736;-78
2022/05/24 11:24:50;;;;;;;9.40;3.00;;;29.10;99.90;;;;;;5079307;28;20271;-76
2022/05/24 11:27:24;;;;;;;5.30;3.15;;;29.10;99.90;;;;;;5069574;28;20193;-77
2022/05/24 11:29:56;;;;;;;7.45;3.55;;;28.70;99.90;;;;;;5069042;28;20210;-78
2022/05/24 11:32:36;;;;;;;6.63;3.28;;;28.40;99.90;;;;;;5069933;28;20213;-78
2022/05/24 11:35:08;;;;;;;4.07;2.97;;;28.20;99.90;;;;;;5068229;28;20588;-77
2022/05/24 11:37:37;;;;;;;4.90;2.95;;;28.10;99.90;;;;;;5069228;28;20187;-78
2022/05/24 11:40:30;;;;;;;6.53;3.10;;;28.40;99.90;;;;;;5068586;28;20222;-78
2022/05/24 11:42:59;;;;;;;3.80;2.80;;;28.50;99.90;;;;;;5068314;28;20197;-78
2022/05/24 11:46:02;;;;;;;5.45;3.30;;;28.60;99.90;;;;;;5066401;28;20230;-78
2022/05/24 11:48:44;;;;;;;7.60;3.22;;;28.40;99.90;;;;;;5066274;28;20202;-78
2022/05/24 11:51:44;;;;;;;6.03;2.88;;;28.50;99.90;;;;;;5068539;28;20222;-78
2022/05/24 11:55:03;;;;;;;7.18;3.65;;;28.60;99.90;;;;;;4986051;28;20229;-78
2022/05/24 11:57:41;;;;;;;8.05;3.63;;;28.30;99.90;;;;;;5066575;28;20271;-79
2022/05/24 12:00:11;;;;;;;5.68;3.47;;;28.20;99.90;;;;;;5067966;28;20271;-79
2022/05/24 12:08:34;;;;;;;7.65;3.15;;;28.50;99.90;;;;;;5065786;28;20352;-77
2022/05/24 12:11:17;;;;;;;5.35;2.72;;;28.20;99.90;;;;;;5068357;28;20206;-77
2022/05/24 12:14:12;;;;;;;8.43;3.17;;;28.00;99.90;;;;;;5068734;28;20210;-78
2022/05/24 12:16:45;;;;;;;6.22;2.90;;;27.90;99.90;;;;;;5077547;28;20193;-78
2022/05/24 12:19:51;;;;;;;8.35;3.10;;;28.00;99.90;;;;;;5068022;28;20224;-78
2022/05/24 12:22:21;;;;;;;5.80;2.58;;;28.20;99.90;;;;;;5068291;28;20210;-78
2022/05/24 12:25:01;;;;;;;6.00;3.15;;;28.40;99.90;;;;;;5070305;28;20291;-78
2022/05/24 12:27:46;;;;;;;8.57;3.42;;;28.20;99.90;;;;;;5065287;28;20248;-78
2022/05/24 12:30:45;;;;;;;8.02;3.05;;;28.10;99.90;;;;;;5066594;28;20638;-78
2022/05/24 12:33:28;;;;;;;4.03;2.80;;;28.10;99.90;;;;;;5066859;28;20194;-77
2022/05/24 12:36:09;;;;;;;8.00;3.40;;;28.10;99.90;;;;;;5064118;28;20229;-78
2022/05/24 12:38:39;;;;;;;8.38;3.30;;;28.00;99.90;;;;;;5065623;28;20190;-77
2022/05/24 12:41:13;;;;;;;5.13;3.05;;;28.00;99.90;;;;;;5068420;28;20206;-78
2022/05/24 12:43:55;;;;;;;4.57;3.00;;;28.00;99.90;;;;;;5068593;28;20195;-77
2022/05/24 12:46:22;;;;;;;5.10;2.50;;;28.20;99.90;;;;;;5068132;28;20218;-78
2022/05/24 12:48:50;;;;;;;7.40;3.17;;;28.10;99.90;;;;;;5068300;28;20209;-77
2022/05/24 12:51:21;;;;;;;7.28;2.78;;;28.00;99.90;;;;;;5066649;28;20562;-78
2022/05/24 12:53:48;;;;;;;4.93;2.95;;;28.10;99.90;;;;;;5068221;28;20658;-78
2022/05/24 12:56:19;;;;;;;6.97;3.20;;;28.30;99.90;;;;;;5067233;28;20221;-77
2022/05/24 12:58:49;;;;;;;5.50;2.90;;;28.30;99.90;;;;;;5068272;28;20269;-77
2022/05/24 13:01:21;;;;;;;4.90;2.88;;;28.30;99.90;;;;;;5066782;28;20647;-78
2022/05/24 13:04:09;;;;;;;6.97;3.17;;;28.50;99.90;;;;;;5068082;28;20182;-78
2022/05/24 13:06:39;;;;;;;9.38;3.15;;;28.50;99.90;;;;;;5074393;28;20218;-78
2022/05/24 13:09:25;;;;;;;5.45;3.33;;;28.50;99.90;;;;;;5073553;28;20190;-78
2022/05/24 13:11:55;;;;;;;4.95;3.22;;;28.20;99.90;;;;;;5067495;28;20225;-77
2022/05/24 13:14:49;;;;;;;8.25;3.33;;;27.90;99.90;;;;;;5067848;28;20214;-78
2022/05/24 13:17:23;;;;;;;9.60;3.83;;;27.80;99.90;;;;;;5046452;28;20214;-78
2022/05/24 13:19:56;;;;;;;8.48;3.60;;;27.70;99.90;;;;;;5067535;28;20198;-78
2022/05/24 13:22:39;;;;;;;7.72;2.90;;;27.70;99.90;;;;;;5063496;28;20225;-78
2022/05/24 13:25:12;;;;;;;6.78;3.75;;;27.70;99.90;;;;;;5065381;28;20210;-79
2022/05/24 13:27:51;;;;;;;7.13;3.25;;;27.80;99.90;;;;;;5067428;28;20214;-78
2022/05/24 13:35:49;;;;;;;12.80;3.80;;;27.90;99.90;;;;;;5067774;28;20616;-78
2022/05/24 13:38:26;;;;;;;6.93;3.38;;;27.70;99.90;;;;;;5067327;28;20186;-78
2022/05/24 13:40:55;;;;;;;10.77;3.45;;;27.40;99.90;;;;;;5063129;28;20190;-78
2022/05/24 13:43:33;;;;;;;6.70;3.30;;;27.30;99.90;;;;;;5067886;28;20198;-78
2022/05/24 13:46:08;;;;;;;7.28;3.42;;;27.30;99.90;;;;;;5065485;28;20773;-77
2022/05/24 13:48:42;;;;;;;6.20;3.60;;;27.50;99.90;;;;;;5067409;28;20243;-78